createdAt,value
2018-09-30T00:00:32.883Z,8.10
2018-09-30T00:03:01.326Z,8.10
2018-09-30T00:05:29.745Z,8.10
2018-09-30T00:07:58.207Z,8.00
2018-09-30T00:10:26.655Z,8.00
2018-09-30T00:12:55.124Z,7.90
2018-09-30T00:15:23.551Z,7.90
2018-09-30T00:17:51.997Z,7.80
2018-09-30T00:20:20.450Z,7.70
2018-09-30T00:22:48.891Z,7.80
2018-09-30T00:25:22.741Z,7.80
2018-09-30T00:27:51.169Z,7.90
2018-09-30T00:30:19.625Z,7.90
2018-09-30T00:32:48.085Z,8.00
2018-09-30T00:35:16.544Z,8.00
2018-09-30T00:37:44.968Z,8.00
2018-09-30T00:40:13.445Z,8.00
2018-09-30T00:42:41.883Z,8.00
2018-09-30T00:45:10.339Z,7.90
2018-09-30T00:47:38.761Z,7.90
2018-09-30T00:50:07.217Z,7.90
2018-09-30T00:52:35.642Z,8.00
2018-09-30T00:55:04.121Z,8.00
2018-09-30T00:57:32.560Z,7.90
2018-09-30T01:00:01.018Z,7.90
2018-09-30T01:02:29.451Z,7.80
2018-09-30T01:04:57.897Z,7.80
2018-09-30T01:07:26.324Z,7.80
2018-09-30T01:09:54.756Z,7.70
2018-09-30T01:12:23.212Z,7.80
2018-09-30T01:14:51.653Z,7.80
2018-09-30T01:17:20.118Z,7.60
2018-09-30T01:19:48.540Z,7.40
2018-09-30T01:22:16.999Z,7.50
2018-09-30T01:24:45.421Z,7.50
2018-09-30T01:27:13.850Z,7.40
2018-09-30T01:29:42.292Z,7.40
2018-09-30T01:32:10.725Z,7.40
2018-09-30T01:34:39.188Z,7.40
2018-09-30T01:37:07.621Z,7.40
2018-09-30T01:39:36.069Z,7.30
2018-09-30T01:42:04.576Z,7.20
2018-09-30T01:44:33.006Z,7.10
2018-09-30T01:47:01.437Z,7.10
2018-09-30T01:49:29.940Z,7.00
2018-09-30T01:53:04.691Z,7.00
2018-09-30T01:55:33.153Z,6.90
2018-09-30T01:58:01.581Z,7.00
2018-09-30T02:00:30.027Z,6.90
2018-09-30T02:02:58.467Z,6.90
2018-09-30T02:05:26.922Z,6.90
2018-09-30T02:07:55.349Z,6.90
2018-09-30T02:10:23.792Z,6.90
2018-09-30T02:12:52.204Z,6.90
2018-09-30T02:15:20.678Z,6.90
2018-09-30T02:17:49.111Z,7.00
2018-09-30T02:20:17.548Z,7.00
2018-09-30T02:22:46.001Z,7.00
2018-09-30T02:25:14.445Z,7.00
2018-09-30T02:27:42.868Z,7.00
2018-09-30T02:30:11.320Z,7.00
2018-09-30T02:32:39.758Z,6.90
2018-09-30T02:35:08.204Z,7.00
2018-09-30T02:37:36.647Z,6.90
2018-09-30T02:40:05.165Z,6.90
2018-09-30T02:42:33.630Z,6.90
2018-09-30T02:45:02.067Z,6.90
2018-09-30T02:47:30.524Z,6.80
2018-09-30T02:49:58.959Z,6.70
2018-09-30T02:52:27.410Z,6.70
2018-09-30T02:54:55.848Z,6.80
2018-09-30T02:57:24.347Z,6.80
2018-09-30T02:59:52.777Z,6.70
2018-09-30T03:02:21.276Z,6.70
2018-09-30T03:04:49.777Z,6.80
2018-09-30T03:07:23.578Z,6.70
2018-09-30T03:09:52.005Z,6.80
2018-09-30T03:12:20.551Z,6.70
2018-09-30T03:14:49.007Z,6.60
2018-09-30T03:17:17.492Z,6.60
2018-09-30T03:19:45.970Z,6.60
2018-09-30T03:22:14.419Z,6.60
2018-09-30T03:24:42.871Z,6.50
2018-09-30T03:27:11.477Z,6.60
2018-09-30T03:29:39.943Z,6.50
2018-09-30T03:32:08.428Z,6.50
2018-09-30T03:34:37.007Z,6.50
2018-09-30T03:37:05.471Z,6.50
2018-09-30T03:39:33.993Z,6.40
2018-09-30T03:42:02.492Z,6.30
2018-09-30T03:44:30.973Z,6.30
2018-09-30T03:46:59.421Z,6.30
2018-09-30T03:49:27.909Z,6.30
2018-09-30T03:51:56.337Z,6.30
2018-09-30T03:54:24.807Z,6.30
2018-09-30T03:56:53.246Z,6.30
2018-09-30T03:59:21.698Z,6.30
2018-09-30T04:01:50.147Z,6.20
2018-09-30T04:04:18.624Z,6.20
2018-09-30T04:06:47.063Z,6.20
2018-09-30T04:09:15.523Z,6.30
2018-09-30T04:11:43.981Z,6.30
2018-09-30T04:14:12.436Z,6.40
2018-09-30T04:16:40.901Z,6.30
2018-09-30T04:19:09.401Z,6.30
2018-09-30T04:21:37.867Z,6.40
2018-09-30T04:24:10.040Z,6.30
2018-09-30T04:26:39.601Z,6.20
2018-09-30T04:29:08.346Z,6.30
2018-09-30T04:31:36.846Z,6.30
2018-09-30T04:34:05.580Z,6.30
2018-09-30T04:36:34.962Z,6.20
2018-09-30T04:39:04.797Z,6.20
2018-09-30T04:41:33.261Z,6.10
2018-09-30T04:44:01.704Z,6.10
2018-09-30T04:46:30.136Z,6.10
2018-09-30T04:48:58.620Z,6.00
2018-09-30T04:51:27.052Z,6.00
2018-09-30T04:53:55.522Z,6.00
2018-09-30T04:56:23.960Z,5.90
2018-09-30T04:58:52.421Z,5.90
2018-09-30T05:01:20.860Z,5.80
2018-09-30T05:03:49.366Z,5.80
2018-09-30T05:06:17.825Z,5.70
2018-09-30T05:08:46.252Z,5.80
2018-09-30T05:11:14.709Z,5.80
2018-09-30T05:13:43.142Z,5.80
2018-09-30T05:16:11.644Z,5.80
2018-09-30T05:18:40.061Z,5.70
2018-09-30T05:21:08.569Z,5.60
2018-09-30T05:23:37.010Z,5.60
2018-09-30T05:26:05.463Z,5.70
2018-09-30T05:28:33.907Z,5.60
2018-09-30T05:31:02.387Z,5.70
2018-09-30T05:33:30.839Z,5.70
2018-09-30T05:35:59.313Z,5.70
2018-09-30T05:38:27.755Z,5.70
2018-09-30T05:40:56.221Z,5.80
2018-09-30T05:43:24.658Z,5.80
2018-09-30T05:45:53.138Z,5.80
2018-09-30T05:48:21.633Z,5.70
2018-09-30T05:50:50.083Z,5.80
2018-09-30T05:53:18.514Z,5.90
2018-09-30T05:55:46.973Z,5.90
2018-09-30T05:58:15.411Z,6.10
2018-09-30T06:00:43.881Z,6.00
2018-09-30T06:03:12.319Z,6.00
2018-09-30T06:05:40.762Z,6.20
2018-09-30T06:08:09.223Z,6.10
2018-09-30T06:10:37.658Z,6.10
2018-09-30T06:13:06.279Z,6.30
2018-09-30T06:15:34.728Z,6.30
2018-09-30T06:18:03.134Z,6.40
2018-09-30T06:20:31.561Z,6.30
2018-09-30T06:22:59.991Z,6.50
2018-09-30T06:25:28.706Z,6.50
2018-09-30T06:27:57.137Z,6.50
2018-09-30T06:30:25.695Z,6.60
2018-09-30T06:32:54.119Z,6.70
2018-09-30T06:35:22.595Z,6.80
2018-09-30T06:37:51.043Z,6.90
2018-09-30T06:40:19.589Z,7.00
2018-09-30T06:42:48.054Z,7.10
2018-09-30T06:45:16.541Z,7.30
2018-09-30T06:47:44.999Z,7.40
2018-09-30T06:50:13.444Z,7.50
2018-09-30T06:52:41.904Z,7.50
2018-09-30T06:55:10.387Z,7.60
2018-09-30T06:57:38.841Z,7.70
2018-09-30T07:00:07.321Z,7.80
2018-09-30T07:02:35.774Z,7.70
2018-09-30T07:05:04.260Z,7.80
2018-09-30T07:07:32.714Z,7.90
2018-09-30T07:10:01.156Z,8.00
2018-09-30T07:12:29.699Z,8.00
2018-09-30T07:14:58.154Z,8.20
2018-09-30T07:17:26.643Z,8.20
2018-09-30T07:19:55.097Z,8.30
2018-09-30T07:22:23.605Z,8.40
2018-09-30T07:24:52.060Z,8.50
2018-09-30T07:27:20.493Z,8.60
2018-09-30T07:29:48.905Z,8.80
2018-09-30T07:32:17.372Z,8.80
2018-09-30T07:34:45.817Z,8.80
2018-09-30T07:37:14.283Z,9.00
2018-09-30T07:39:42.705Z,9.00
2018-09-30T07:42:11.195Z,9.10
2018-09-30T07:44:39.681Z,9.30
2018-09-30T07:47:08.320Z,9.20
2018-09-30T07:49:36.787Z,9.20
2018-09-30T07:52:05.445Z,9.30
2018-09-30T07:54:33.909Z,9.30
2018-09-30T07:57:02.431Z,9.40
2018-09-30T07:59:30.868Z,9.70
2018-09-30T08:01:59.329Z,9.80
2018-09-30T08:04:27.766Z,9.90
2018-09-30T08:06:56.244Z,10.00
2018-09-30T08:09:24.688Z,10.10
2018-09-30T08:11:53.156Z,10.20
2018-09-30T08:14:21.622Z,10.20
2018-09-30T08:16:50.175Z,10.20
2018-09-30T08:19:18.575Z,10.40
2018-09-30T08:21:47.069Z,10.40
2018-09-30T08:24:15.625Z,10.50
2018-09-30T08:26:44.063Z,10.50
2018-09-30T08:29:12.529Z,10.60
2018-09-30T08:31:40.971Z,10.80
2018-09-30T08:34:09.450Z,11.00
2018-09-30T08:36:38.077Z,11.00
2018-09-30T08:39:08.033Z,11.10
2018-09-30T08:41:36.528Z,11.20
2018-09-30T08:44:05.497Z,11.20
2018-09-30T08:46:34.082Z,11.30
2018-09-30T08:49:02.576Z,11.40
2018-09-30T08:51:31.139Z,11.60
2018-09-30T08:53:59.725Z,11.80
2018-09-30T08:56:28.089Z,11.70
2018-09-30T08:58:56.597Z,11.70
2018-09-30T09:01:25.081Z,11.90
2018-09-30T09:03:53.771Z,11.90
2018-09-30T09:06:22.410Z,12.10
2018-09-30T09:08:50.953Z,12.40
2018-09-30T09:11:19.414Z,12.30
2018-09-30T09:13:47.909Z,12.30
2018-09-30T09:16:16.393Z,12.50
2018-09-30T09:18:44.872Z,12.10
2018-09-30T09:21:13.363Z,12.40
2018-09-30T09:23:41.889Z,12.70
2018-09-30T09:26:10.415Z,12.80
2018-09-30T09:28:38.958Z,12.90
2018-09-30T09:31:07.467Z,12.90
2018-09-30T09:33:35.916Z,13.20
2018-09-30T09:36:04.424Z,13.30
2018-09-30T09:38:32.988Z,13.10
2018-09-30T09:41:01.410Z,13.30
2018-09-30T09:43:29.876Z,13.70
2018-09-30T09:45:58.622Z,13.90
2018-09-30T09:48:27.073Z,14.00
2018-09-30T09:50:55.578Z,14.10
2018-09-30T09:53:24.138Z,14.10
2018-09-30T09:55:52.580Z,14.30
2018-09-30T09:58:21.043Z,14.50
2018-09-30T10:00:49.772Z,14.40
2018-09-30T10:03:18.227Z,14.60
2018-09-30T10:05:46.643Z,14.70
2018-09-30T10:08:15.524Z,14.50
2018-09-30T10:10:43.929Z,14.60
2018-09-30T10:13:12.448Z,14.70
2018-09-30T10:15:40.884Z,14.80
2018-09-30T10:18:09.324Z,14.70
2018-09-30T10:20:37.777Z,14.90
2018-09-30T10:23:06.279Z,15.00
2018-09-30T10:25:34.708Z,15.00
2018-09-30T10:28:03.145Z,15.30
2018-09-30T10:30:31.768Z,15.30
2018-09-30T10:33:00.251Z,15.40
2018-09-30T10:35:28.750Z,15.40
2018-09-30T10:37:57.164Z,15.60
2018-09-30T10:40:25.711Z,15.40
2018-09-30T10:42:54.135Z,15.60
2018-09-30T10:45:22.603Z,15.70
2018-09-30T10:47:51.072Z,15.70
2018-09-30T10:50:19.590Z,15.80
2018-09-30T10:52:48.033Z,16.00
2018-09-30T10:55:16.570Z,16.20
2018-09-30T10:57:45.008Z,16.30
2018-09-30T11:00:13.482Z,16.40
2018-09-30T11:02:41.931Z,16.40
2018-09-30T11:05:10.500Z,16.40
2018-09-30T11:07:39.013Z,16.50
2018-09-30T11:10:07.612Z,16.60
2018-09-30T11:12:36.033Z,16.80
2018-09-30T11:15:04.730Z,16.80
2018-09-30T11:17:33.222Z,16.70
2018-09-30T11:20:01.721Z,16.80
2018-09-30T11:22:30.262Z,17.00
2018-09-30T11:24:58.811Z,17.10
2018-09-30T11:27:27.283Z,17.00
2018-09-30T11:29:55.764Z,16.80
2018-09-30T11:32:24.266Z,16.80
2018-09-30T11:34:52.733Z,16.70
2018-09-30T11:37:21.207Z,16.70
2018-09-30T11:39:49.714Z,16.70
2018-09-30T11:42:18.198Z,16.90
2018-09-30T11:44:46.665Z,17.00
2018-09-30T11:47:15.147Z,17.30
2018-09-30T11:49:43.627Z,17.40
2018-09-30T11:52:12.071Z,17.50
2018-09-30T11:54:40.551Z,17.60
2018-09-30T11:57:09.028Z,17.60
2018-09-30T11:59:37.549Z,17.50
2018-09-30T12:02:06.093Z,17.50
2018-09-30T12:04:34.589Z,17.50
2018-09-30T12:07:03.096Z,17.50
2018-09-30T12:09:31.539Z,17.70
2018-09-30T12:12:00.051Z,17.60
2018-09-30T12:14:28.502Z,17.70
2018-09-30T12:16:57.008Z,17.80
2018-09-30T12:19:25.468Z,17.90
2018-09-30T12:21:53.942Z,18.00
2018-09-30T12:24:22.445Z,18.10
2018-09-30T12:26:50.945Z,18.10
2018-09-30T12:29:19.437Z,18.00
2018-09-30T12:31:47.934Z,18.10
2018-09-30T12:34:16.377Z,18.20
2018-09-30T12:36:44.857Z,18.10
2018-09-30T12:39:13.354Z,18.10
2018-09-30T12:41:41.825Z,18.20
2018-09-30T12:44:10.270Z,18.20
2018-09-30T12:46:38.765Z,18.30
2018-09-30T12:49:07.271Z,18.40
2018-09-30T12:51:35.783Z,18.40
2018-09-30T12:54:04.237Z,18.40
2018-09-30T12:56:32.712Z,18.40
2018-09-30T12:59:01.529Z,18.40
2018-09-30T13:01:30.004Z,18.20
2018-09-30T13:03:58.559Z,18.40
2018-09-30T13:06:27.042Z,18.40
2018-09-30T13:08:55.514Z,18.50
2018-09-30T13:11:24.133Z,18.40
2018-09-30T13:13:52.609Z,18.60
2018-09-30T13:16:21.122Z,18.70
2018-09-30T13:18:49.728Z,18.80
2018-09-30T13:21:18.965Z,18.60
2018-09-30T13:23:47.454Z,18.60
2018-09-30T13:26:16.011Z,18.70
2018-09-30T13:28:44.474Z,18.70
2018-09-30T13:31:12.933Z,18.80
2018-09-30T13:33:41.792Z,18.90
2018-09-30T13:36:10.284Z,18.80
2018-09-30T13:38:39.010Z,18.80
2018-09-30T13:41:07.761Z,18.80
2018-09-30T13:43:36.043Z,18.90
2018-09-30T13:46:04.554Z,18.90
2018-09-30T13:48:33.040Z,18.90
2018-09-30T13:51:01.561Z,18.90
2018-09-30T13:53:29.989Z,18.90
2018-09-30T13:55:58.425Z,18.90
2018-09-30T13:58:26.990Z,18.90
2018-09-30T14:00:55.420Z,19.10
2018-09-30T14:03:23.893Z,19.10
2018-09-30T14:05:52.351Z,19.00
2018-09-30T14:08:20.821Z,19.00
2018-09-30T14:10:49.274Z,19.00
2018-09-30T14:13:17.750Z,19.00
2018-09-30T14:15:46.224Z,18.90
2018-09-30T14:18:14.707Z,18.90
2018-09-30T14:20:43.166Z,18.90
2018-09-30T14:23:11.648Z,19.00
2018-09-30T14:25:40.143Z,18.90
2018-09-30T14:28:08.629Z,19.00
2018-09-30T14:30:37.099Z,19.00
2018-09-30T14:33:05.660Z,19.00
2018-09-30T14:35:34.179Z,19.10
2018-09-30T14:38:02.684Z,19.20
2018-09-30T14:40:31.159Z,19.20
2018-09-30T14:42:59.631Z,19.10
2018-09-30T14:45:28.124Z,19.20
2018-09-30T14:47:56.588Z,19.20
2018-09-30T14:50:25.254Z,19.20
2018-09-30T14:52:53.709Z,19.30
2018-09-30T14:55:22.167Z,19.20
2018-09-30T14:57:50.614Z,19.00
2018-09-30T15:00:19.053Z,18.90
2018-09-30T15:02:47.549Z,19.00
2018-09-30T15:05:16.012Z,19.00
2018-09-30T15:07:44.463Z,19.00
2018-09-30T15:10:12.940Z,19.00
2018-09-30T15:12:41.388Z,19.20
2018-09-30T15:15:09.897Z,19.20
2018-09-30T15:17:38.484Z,19.20
2018-09-30T15:20:06.944Z,19.20
2018-09-30T15:22:35.825Z,19.20
2018-09-30T15:25:04.367Z,19.10
2018-09-30T15:27:32.810Z,19.10
2018-09-30T15:30:01.294Z,19.10
2018-09-30T15:32:29.746Z,19.00
2018-09-30T15:34:58.232Z,19.00
2018-09-30T15:37:26.819Z,19.00
2018-09-30T15:39:55.303Z,19.10
2018-09-30T15:42:23.844Z,19.00
2018-09-30T15:44:52.372Z,19.00
2018-09-30T15:47:21.159Z,18.90
2018-09-30T15:49:49.625Z,18.90
2018-09-30T15:52:18.084Z,18.80
2018-09-30T15:54:46.621Z,18.80
2018-09-30T15:57:15.102Z,18.70
2018-09-30T15:59:43.579Z,18.60
2018-09-30T16:02:12.067Z,18.60
2018-09-30T16:04:40.607Z,18.50
2018-09-30T16:07:09.061Z,18.50
2018-09-30T16:09:37.571Z,18.40
2018-09-30T16:12:06.097Z,18.40
2018-09-30T16:14:34.573Z,18.30
2018-09-30T16:17:03.066Z,18.20
2018-09-30T16:19:31.570Z,18.20
2018-09-30T16:22:00.035Z,18.20
2018-09-30T16:24:28.539Z,18.20
2018-09-30T16:26:57.092Z,18.10
2018-09-30T16:29:25.577Z,18.10
2018-09-30T16:31:54.053Z,18.00
2018-09-30T16:34:22.585Z,18.00
2018-09-30T16:36:51.090Z,17.90
2018-09-30T16:39:19.558Z,17.80
2018-09-30T16:41:48.121Z,17.70
2018-09-30T16:44:16.574Z,17.60
2018-09-30T16:46:45.099Z,17.60
2018-09-30T16:49:13.568Z,17.50
2018-09-30T16:51:42.076Z,17.50
2018-09-30T16:54:10.550Z,17.50
2018-09-30T16:56:39.141Z,17.40
2018-09-30T16:59:07.577Z,17.20
2018-09-30T17:01:36.278Z,17.20
2018-09-30T17:04:04.778Z,17.20
2018-09-30T17:06:33.314Z,17.10
2018-09-30T17:09:01.765Z,17.00
2018-09-30T17:11:30.236Z,17.00
2018-09-30T17:13:58.708Z,16.90
2018-09-30T17:16:27.219Z,16.80
2018-09-30T17:18:55.715Z,16.80
2018-09-30T17:21:24.263Z,16.70
2018-09-30T17:23:52.741Z,16.60
2018-09-30T17:26:21.280Z,16.50
2018-09-30T17:28:49.785Z,16.40
2018-09-30T17:31:18.346Z,16.30
2018-09-30T17:33:46.747Z,16.20
2018-09-30T17:36:15.247Z,16.10
2018-09-30T17:38:43.706Z,16.00
2018-09-30T17:41:12.222Z,15.90
2018-09-30T17:43:40.714Z,15.90
2018-09-30T17:46:09.352Z,15.80
2018-09-30T17:48:37.797Z,15.80
2018-09-30T17:51:06.380Z,15.80
2018-09-30T17:53:34.809Z,15.70
2018-09-30T17:56:03.311Z,15.60
2018-09-30T17:58:31.755Z,15.50
2018-09-30T18:01:00.279Z,15.40
2018-09-30T18:03:28.750Z,15.40
2018-09-30T18:05:57.221Z,15.50
2018-09-30T18:08:25.678Z,15.40
2018-09-30T18:10:54.268Z,15.40
2018-09-30T18:13:22.744Z,15.30
2018-09-30T18:15:51.287Z,15.30
2018-09-30T18:18:19.765Z,15.30
2018-09-30T18:20:48.269Z,15.40
2018-09-30T18:23:16.794Z,15.40
2018-09-30T18:25:45.263Z,15.50
2018-09-30T18:28:13.749Z,15.40
2018-09-30T18:30:42.243Z,15.40
2018-09-30T18:33:10.776Z,15.40
2018-09-30T18:35:39.340Z,15.30
2018-09-30T18:38:07.847Z,15.20
2018-09-30T18:40:45.027Z,15.00
2018-09-30T18:43:14.073Z,14.80
2018-09-30T18:45:42.821Z,14.80
2018-09-30T18:48:11.516Z,14.70
2018-09-30T18:50:40.285Z,14.70
2018-09-30T18:53:08.841Z,14.60
2018-09-30T18:55:37.380Z,14.60
2018-09-30T18:58:05.898Z,14.50
2018-09-30T19:00:34.445Z,14.50
2018-09-30T19:03:03.145Z,14.50
2018-09-30T19:05:31.678Z,14.40
2018-09-30T19:08:00.230Z,14.40
2018-09-30T19:10:28.797Z,14.40
2018-09-30T19:12:57.291Z,14.40
2018-09-30T19:15:25.740Z,14.40
2018-09-30T19:17:54.206Z,14.40
2018-09-30T19:20:22.672Z,14.50
2018-09-30T19:22:51.394Z,14.40
2018-09-30T19:25:19.835Z,14.30
2018-09-30T19:27:48.320Z,14.30
2018-09-30T19:30:16.897Z,14.30
2018-09-30T19:32:45.337Z,14.30
2018-09-30T19:35:13.825Z,14.30
2018-09-30T19:37:42.315Z,14.20
2018-09-30T19:40:10.792Z,14.20
2018-09-30T19:42:39.281Z,14.10
2018-09-30T19:45:07.735Z,14.00
2018-09-30T19:47:36.203Z,14.00
2018-09-30T19:50:04.717Z,14.00
2018-09-30T19:52:33.195Z,13.90
2018-09-30T19:55:01.627Z,13.80
2018-09-30T19:57:30.083Z,13.80
2018-09-30T19:59:58.535Z,13.70
2018-09-30T20:02:27.023Z,13.60
2018-09-30T20:04:55.542Z,13.50
2018-09-30T20:07:23.999Z,13.40
2018-09-30T20:09:52.450Z,13.40
2018-09-30T20:12:20.926Z,13.40
2018-09-30T20:14:49.386Z,13.30
2018-09-30T20:17:17.843Z,13.30
2018-09-30T20:19:46.316Z,13.30
2018-09-30T20:22:14.761Z,13.30
2018-09-30T20:24:43.235Z,13.20
2018-09-30T20:27:11.683Z,13.20
2018-09-30T20:29:40.161Z,13.20
2018-09-30T20:32:08.607Z,13.20
2018-09-30T20:34:37.077Z,13.20
2018-09-30T20:37:05.621Z,13.20
2018-09-30T20:39:34.048Z,13.10
2018-09-30T20:42:02.547Z,13.00
2018-09-30T20:44:31.353Z,13.00
2018-09-30T20:46:59.817Z,12.90
2018-09-30T20:49:28.312Z,12.90
2018-09-30T20:51:56.789Z,12.90
2018-09-30T20:54:25.258Z,12.90
2018-09-30T20:56:53.716Z,12.90
2018-09-30T20:59:22.172Z,12.80
2018-09-30T21:01:50.639Z,12.80
2018-09-30T21:04:19.151Z,12.70
2018-09-30T21:06:47.756Z,12.70
2018-09-30T21:09:17.671Z,12.70
2018-09-30T21:11:46.320Z,12.70
2018-09-30T21:14:14.808Z,12.70
2018-09-30T21:16:43.305Z,12.70
2018-09-30T21:19:11.800Z,12.70
2018-09-30T21:21:40.314Z,12.60
2018-09-30T21:24:08.911Z,12.60
2018-09-30T21:26:37.394Z,12.60
2018-09-30T21:29:05.979Z,12.50
2018-09-30T21:31:34.445Z,12.50
2018-09-30T21:34:02.979Z,12.40
2018-09-30T21:36:31.445Z,12.40
2018-09-30T21:38:59.909Z,12.40
2018-09-30T21:41:28.418Z,12.30
2018-09-30T21:43:56.871Z,12.30
2018-09-30T21:46:25.353Z,12.30
2018-09-30T21:48:54.300Z,12.30
2018-09-30T21:51:22.615Z,12.30
2018-09-30T21:53:51.066Z,12.30
2018-09-30T21:56:19.570Z,12.20
2018-09-30T21:58:48.059Z,12.20
2018-09-30T22:01:16.598Z,12.10
2018-09-30T22:03:44.997Z,12.20
2018-09-30T22:06:13.474Z,12.10
2018-09-30T22:08:41.914Z,12.10
2018-09-30T22:11:10.398Z,12.00
2018-09-30T22:13:38.922Z,12.10
2018-09-30T22:16:07.458Z,12.10
2018-09-30T22:18:35.895Z,12.10
2018-09-30T22:21:04.403Z,12.10
2018-09-30T22:23:32.844Z,12.00
2018-09-30T22:26:01.293Z,11.90
2018-09-30T22:28:29.740Z,12.00
2018-09-30T22:30:58.223Z,11.90
2018-09-30T22:33:26.661Z,11.90
2018-09-30T22:35:55.130Z,11.70
2018-09-30T22:38:23.574Z,11.60
2018-09-30T22:40:52.039Z,11.60
2018-09-30T22:43:20.478Z,11.60
2018-09-30T22:45:48.944Z,11.80
2018-09-30T22:48:17.393Z,11.70
2018-09-30T22:50:45.867Z,11.50
2018-09-30T22:53:14.375Z,11.50
2018-09-30T22:55:42.821Z,11.50
2018-09-30T22:58:11.249Z,11.40
2018-09-30T23:00:39.720Z,11.40
2018-09-30T23:03:08.169Z,11.40
2018-09-30T23:05:36.669Z,11.40
2018-09-30T23:08:05.131Z,11.40
2018-09-30T23:10:33.612Z,11.30
2018-09-30T23:13:02.057Z,11.20
2018-09-30T23:15:30.493Z,11.10
2018-09-30T23:17:58.955Z,11.10
2018-09-30T23:20:27.419Z,11.00
2018-09-30T23:22:55.874Z,11.10
2018-09-30T23:25:24.354Z,11.10
2018-09-30T23:27:52.831Z,11.20
2018-09-30T23:30:21.274Z,11.20
2018-09-30T23:32:49.737Z,11.20
2018-09-30T23:35:18.169Z,11.20
2018-09-30T23:37:46.648Z,11.20
2018-09-30T23:40:15.139Z,11.10
2018-09-30T23:42:43.590Z,11.20
2018-09-30T23:45:12.021Z,11.30
2018-09-30T23:47:40.493Z,11.50
2018-09-30T23:50:08.937Z,11.60
2018-09-30T23:52:37.397Z,11.70
2018-09-30T23:55:05.896Z,11.70
2018-09-30T23:57:34.357Z,11.70
